ジンナー国際空港(カラチ)の過去48時間の天気

ジンナー国際空港(カラチ) (Karachi Airport)

現在時刻: 7/5 08:59 PKT (7/5 03:59 UTC) 以下の時間は現地時間です。

過去48時間のMETAR気象情報
時間 風向 風速(m/s) 視程 気温(℃) 湿度(%) 気圧(hPa) 天気現象
5 08:30 3 3000m 29 84 997
5 08:00 3 3000m 28 89 997
5 07:30 東北東 3 3000m 28 89 997
5 07:00 3 3000m 28 89 997
5 06:30 2 3000m 28 89 997
5 06:00 東北東 2 3000m 28 89 997
5 05:30 東北東 2 6000m 28 89 997
5 05:00 北東 2 6000m 28 89 996
5 04:30 東北東 2 6000m 28 89 996
5 04:00 東北東 2 6000m 28 89 996
5 03:30 北北東 2 6000m 28 84 996
5 03:00 静穏 0 6000m 28 84 996
5 02:30 静穏 0 6000m 28 84 996
5 02:00 静穏 0 6000m 28 84 997
5 01:30 北北西 2 6000m 28 84 997
5 01:00 北北西 2 5000m 28 84 998
5 00:30 2 5000m 28 89 998
5 00:00 北北西 2 5000m 28 89 998
4 23:30 北北東 3 5000m 28 89 998
4 23:00 2 4000m 28 89 998
4 22:30 北北西 2 3000m 28 89 997 霧雨
4 22:00 3 3000m 28 89 997 霧雨
4 21:30 2 3000m 28 89 998 霧雨
4 21:00 東北東 2 3000m 28 89 997
4 20:30 東北東 3 3000m 28 89 997
4 20:00 北北西 5 3000m 28 89 997 雷雨
4 19:30 北北西 5 4000m 28 89 997 雷雨
4 19:00 北北西 5 4000m 28 89 996 雷 弱い雨
4 18:30 北北西 5 4000m 28 89 996 雷 弱い雨
4 18:00 北北西 5 4000m 28 84 996 雷雨
4 17:30 北北西 5 4000m 28 84 995 周辺で雷
4 17:00 北北西 5 4000m 29 79 995 周辺で雷
4 16:30 北北西 5 4000m 29 79 996 周辺で雷
4 16:00 西 6 4000m 31 79 995 周辺で雷
4 15:30 西 5 4000m 32 67 995 周辺で雷 弱い雨
4 15:00 南西 6 5000m 36 50 995 煙霧
4 14:30 南西 5 4000m 36 50 995 煙霧
4 14:00 南西 5 4000m 36 50 996
4 13:30 南西 5 4000m 36 50 996
4 13:00 南西 4 4000m 36 50 997
4 12:30 南西 4 4000m 35 53 997
4 12:00 南西 4 4000m 35 53 998
4 11:30 南西 4 4000m 35 53 998
4 11:00 南西 4 4000m 34 60 998
4 10:30 南西 3 4000m 34 60 998
4 10:00 南西 2 4000m 33 59 998
4 09:30 南西 2 4000m 33 63 998
4 09:00 南南西 2 4000m 33 63 997
4 08:30 不定 2 4000m 31 75 998
4 07:55 西南西 2 4000m 31 75 998
4 07:25 南西 2 4000m 30 75 997
4 06:55 南西 2 4000m 30 79 997 煙 塵嵐
4 06:30 西 2 4000m 30 79 997 弱い霧雨
4 05:55 南西 2 4000m 30 79 997
4 05:30 南西 3 4000m 30 79 997
4 04:55 南西 4 5000m 30 79 996
4 04:30 南西 3 5000m 30 79 997
4 04:00 南西 4 5000m 30 79 996
4 03:30 南西 4 5000m 30 79 996
4 03:00 南西 3 5000m 30 79 997
4 02:30 西南西 3 5000m 30 79 997
4 02:00 西南西 3 5000m 30 79 997
4 01:30 南西 4 5000m 30 79 998
4 01:00 西南西 4 5000m 31 75 998
4 00:30 西南西 3 5000m 31 75 998
3 23:25 西南西 4 5000m 30 75 998
3 22:55 南西 5 5000m 30 75 998
3 22:25 西南西 4 6000m 31 70 998
3 21:55 西南西 3 6000m 31 75 998
3 21:30 西南西 3 6000m 31 75 998
3 21:00 南西 5 6000m 31 70 997
3 20:30 南西 5 6000m 31 75 997
3 20:00 南南西 6 6000m 31 75 996
3 19:30 南南西 4 6000m 31 70 996
3 19:00 南西 4 6000m 32 71 996
3 18:30 西南西 3 6000m 32 67 996
3 18:00 南西 6 6000m 33 63 996
3 17:30 南西 5 6000m 33 63 996
3 17:00 南西 5 6000m 33 63 995
3 16:30 南西 6 5000m 33 63 995 煙霧
3 16:00 南南西 7 5000m 33 67 996 煙霧
3 15:30 南南西 7 5000m 34 60 996 煙霧
3 15:00 南南西 6 4000m 33 59 997 煙霧
3 14:30 南南西 6 4000m 33 63 997 煙霧
3 14:00 南西 5 4000m 34 56 997 煙霧
3 13:30 南南西 3 4000m 34 56 997 煙霧
3 13:00 南南西 5 4000m 34 56 997 煙霧
3 12:30 南南西 5 6000m 34 60 998
3 12:00 南西 6 6000m 33 63 998
3 11:30 6 6000m 33 63 998
3 11:00 南西 4 5000m 33 63 998 煙霧
3 10:30 南西 5 4000m 32 67 998 煙霧
3 10:00 南西 3 4000m 33 63 997 煙霧
3 09:30 南西 4 4000m 33 63 997 煙霧
3 09:00 西 2 4000m 32 67 997 煙霧
OPKC 050330Z 10005KT 3000 FU SCT020 BKN080 29/26 Q0997 NOSIG
OPKC 050300Z 09005KT 3000 FU SCT020 BKN080 28/26 Q0997 NOSIG
OPKC 050230Z 07006KT 3000 FU SCT020 28/26 Q0997 TEMPO 1500 FU
OPKC 050200Z 09005KT 3000 FU BKN020 28/26 Q0997 TEMPO 1500 FU
OPKC 050130Z 08003KT 3000 FU BKN020 28/26 Q0997 TEMPO 1500 FU
OPKC 050100Z 06003KT 3000 FU FEW020 SCT025 28/26 Q0997 NOSIG
OPKC 050030Z 07004KT 6000 FEW020 SCT100 28/26 Q0997 NOSIG
OPKC 050000Z 04003KT 6000 FEW020 SCT100 28/26 Q0996 NOSIG
OPKC 042330Z 06004KT 6000 FEW020 SCT100 28/26 Q0996 NOSIG
OPKC 042300Z 06004KT 6000 FEW020 SCT100 28/26 Q0996 NOSIG
OPKC 042230Z 02003KT 6000 FEW020 SCT100 28/25 Q0996 NOSIG
OPKC 042200Z 00000KT 6000 FEW020 SCT100 28/25 Q0996 NOSIG
OPKC 042130Z 00000KT 6000 SCT020 BKN090 28/25 Q0996 NOSIG
OPKC 042100Z 00000KT 6000 SCT020 BKN090 28/25 Q0997 NOSIG
OPKC 042030Z 34003KT 6000 SCT020 BKN090 28/25 Q0997 NOSIG
OPKC 042000Z 33004KT 5000 FU SCT020 BKN090 28/25 Q0998 NOSIG
OPKC 041930Z 35004KT 5000 FU SCT020 BKN080 28/26 Q0998 NOSIG
OPKC 041900Z 33003KT 5000 FU SCT020 BKN080 28/26 Q0998 NOSIG
OPKC 041830Z 02005KT 5000 FU SCT020 BKN030 OVC080 28/26 Q0998 NOSIG
OPKC 041800Z 36003KT 4000 FU SCT020 BKN030 OVC080 28/26 Q0998 TEMPO 1000 TSRA FEW025CB
OPKC 041730Z 33004KT 3000 DZ SCT020 BKN030 OVC080 28/26 Q0997 TEMPO 1000 TSRA FEW025CB
OPKC 041700Z 36005KT 3000 DZ SCT020 BKN030 OVC080 28/26 Q0997 TEMPO 1000 TSRA FEW025CB
OPKC 041630Z 09004KT 3000 DZ SCT020 BKN030 OVC080 28/26 Q0998 TEMPO 1000 TSRA FEW025CB
OPKC 041600Z 06004KT 3000 RA SCT020 BKN030 OVC080 28/26 Q0997 TEMPO 1000 TSRA FEW025CB
OPKC 041530Z 06005KT 3000 RA SCT020 BKN030 OVC080 28/26 Q0997 TEMPO 1000 TSRA FEW025CB
OPKC 041500Z 33009KT 3000 TSRA FEW025CB SCT020 BKN030 OVC080 28/26 Q0997 TEMPO 1000 TSRA FEW025CB
OPKC 041430Z 33009KT 4000 TSRA FEW025CB SCT030 BKN080 28/26 Q0997 TEMPO 1000 TSRA FEW025CB
OPKC 041400Z 33009KT 4000 TS-RA FEW025CB SCT030 BKN080 28/26 Q0996 TEMPO 1000 TSRA FEW025CB
OPKC 041330Z 33009KT 4000 TS-RA FEW025CB SCT030 BKN080 28/26 Q0996 TEMPO 1000 TSRA FEW025CB
OPKC 041300Z 33009KT 4000 TSRA FEW025CB SCT030 BKN080 28/25 Q0996 TEMPO 1000 TSRA FEW025CB
OPKC 041230Z 33009KT 4000 VCTS FEW025TCU SCT030 BKN080 28/25 Q0995 TEMPO 1000 TSRA FEW025CB
OPKC 041200Z 33009KT 4000 VCTS FEW025TCU SCT030 BKN080 29/25 Q0995 TEMPO 1000 TSRA FEW025CB
OPKC 041130Z 33009KT 4000 VCTS FEW025TCU SCT030 BKN080 29/25 Q0996 TEMPO 1000 TSRA FEW025CB
OPKC 041100Z 27012KT 4000 VCTS FEW025TUC SCT030 BKN080 31/27 Q0995 TEMPO 1000 TSRA FEW025CB
OPKC 041030Z 26009KT 4000 -RA/VCTS FEW025TCU SCT030 BKN080 32/25 Q0995 TEMPO 1000 TSRA FEW025CB
OPKC 041000Z 23011KT 5000 HZ SCT030 BKN100 36/24 Q0995 TEMPO 1000 TSRA FEW025CB
OPKC 040930Z 22010KT 4000 HZ SCT030 BKN100 36/24 Q0995 TEMPO 1000 TSRA FEW025CB
OPKC 040900Z 22010KT 4000 FU SCT030 SCT100 36/24 Q0996 TEMPO 10 00 TSRA FEW025CB
OPKC 040830Z 22010KT 4000 FU SCT030 SCT100 36/24 Q0996 NOSIG
OPKC 040800Z 22008KT 4000 FU SCT030 SCT100 36/24 Q0997 NOSIG
OPKC 040730Z 22008KT 4000 FU SCT030 BKN100 35/24 Q0997 NOSIG
OPKC 040700Z 22008KT 4000 FU SCT030 SCT100 35/24 Q0998 NOSIG
OPKC 040630Z 22008KT 4000 FU SCT025 BKN100 35/24 Q0998 NOSIG
OPKC 040600Z 22008KT 4000 FU SCT025 BKN100 34/25 Q0998 NOSIG
OPKC 040530Z 22006KT 4000 FU SCT025 BKN100 34/25 Q0998 NOSIG
OPKC 040500Z 22004KT 4000 FU BKN020 33/24 Q0998 NOSIG
OPKC 040430Z 21504KT 4000 FU BKN020 33/25 Q0998 NOSIG
OPKC 040400Z 21004KT 4000 FU FEW020 SCT100 33/25 Q0997 NOSIG
OPKC 040330Z VRB03KT 4000 FU SCT020 BKN030 31/26 Q0998 NOSIG
OPKC 040255Z 24003KT 4000 FU SCT020 BKN100 31/26 Q0998 NOSIG
OPKC 040225Z 23003KT 4000 FU SCT020 BKN100 30/25 Q0997 NOSIG
OPKC 040155Z 22004KT 4000 FU SCT020 BKN100 30/26 Q0997 RE-DS
OPKC 040130Z 26003KT 4000 -DZ SCT020 BKN100 30/26 Q0997 NOSIG
OPKC 040055Z 22004KT 4000 FU SCT020 BKN100 30/26 Q0997 NOSIG
OPKC 040030Z 22005KT 4000 FU SCT020 BKN100 30/26 Q0997 NOSIG
OPKC 032355Z 22007KT 5000 FU SCT020 BKN100 30/26 Q0996 NOSIG
OPKC 032330Z 22006KT 5000 FU SCT020 BKN100 30/26 Q0997 NOSIG
OPKC 032300Z 23007KT 5000 FU SCT020 BKN100 30/26 Q0996 NOSIG
OPKC 032230Z 22007KT 5000 FU SCT020 BKN100 30/26 Q0996 NOSIG
OPKC 032200Z 22006KT 5000 FU SCT020 BKN100 30/26 Q0997 NOSIG
OPKC 032130Z 24006KT 5000 FU SCT020 BKN100 30/26 Q0997 NOSIG
OPKC 032100Z 24006KT 5000 FU SCT020 BKN100 30/26 Q0997 NOSIG
OPKC 032030Z 23007KT 5000 FU SCT020 BKN100 30/26 Q0998 NOSIG
OPKC 032000Z 24007KT 5000 FU SCT020 BKN100 31/26 Q0998 NOSIG
OPKC 031930Z 25006KT 5000 FU SCT020 BKN100 31/26 Q0998 NOSIG
OPKC 031825Z 24008KT 5000 FU SCT020 BKN100 30/25 Q0998 NOSIG
OPKC 031755Z 22010KT 5000 FU SCT020 BKN100 30/25 Q0998 NOSIG
OPKC 031725Z 24008KT 6000 SCT020 BKN100 31/25 Q0998 NOSIG
OPKC 031655Z 25006KT 6000 SCT020 BKN100 31/26 Q0998 NOSIG
OPKC 031630Z 24006KT 6000 SCT020 BKN100 31/26 Q0998 NOSIG
OPKC 031600Z 23009KT 6000 SCT020 BKN100 31/25 Q0997 NOSIG
OPKC 031530Z 22009KT 6000 SCT020 BKN100 31/26 Q0997 NOSIG
OPKC 031500Z 20011KT 6000 SCT020 BKN100 31/26 Q0996 NOSIG
OPKC 031430Z 21008KT 6000 SCT020 BKN100 31/25 Q0996 NOSIG
OPKC 031400Z 23008KT 6000 SCT020 BKN100 32/26 Q0996 NOSIG
OPKC 031330Z 24006KT 6000 SCT020 BKN030 32/25 Q0996 NOSIG
OPKC 031300Z 22011KT 6000 SCT020 BKN100 33/25 Q0996 NOSIG
OPKC 031230Z 23010KT 6000 SCT020 BKN100 33/25 Q0996 NOSIG
OPKC 031200Z 22010KT 6000 SCT020 BKN100 33/25 Q0995 NOSIG
OPKC 031130Z 23012KT 5000 HZ SCT020 BKN100 33/25 Q0995 NOSIG
OPKC 031100Z 20013KT 5000 HZ SCT020 BKN100 33/26 Q0996 NOSIG
OPKC 031030Z 20013KT 5000 HZ SCT020 BKN100 34/25 Q0996 NOSIG
OPKC 031000Z 20012KT 4000 HZ SCT020 BKN100 33/24 Q0997 NOSIG
OPKC 030930Z 21011KT 4000 HZ SCT020 BKN100 33/25 Q0997 NOSIG
OPKC 030900Z 22010KT 4000 HZ SCT020 BKN100 34/24 Q0997 NOSIG
OPKC 030830Z 20006KT 4000 HZ SCT020 BKN100 34/24 Q0997 NOSIG
OPKC 030800Z 21010KT 4000 HZ SCT020 BKN100 34/24 Q0997 NOSIG
OPKC 030730Z 21010KT 6000 SCT020 BKN100 34/25 Q0998 NOSIG
OPKC 030700Z 23011KT 6000 SCT020 BKN030 33/25 Q0998 NOSIG
OPKC 030630Z 18011KT 6000 SCT020 BKN100 33/25 Q0998 NOSIG
OPKC 030600Z 22007KT 5000 HZ SCT020 BKN100 33/25 Q0998 NOSIG
OPKC 030530Z 22010KT 4000 HZ SCT020 BKN100 32/25 Q0998 NOSIG
OPKC 030500Z 22006KT 4000 HZ SCT020 BKN100 33/25 Q0997 NOSIG
OPKC 030430Z 23008KT 4000 HZ SCT020 BKN100 33/25 Q0997 NOSIG
OPKC 030400Z 27004KT 4000 HZ FEW030 32/25 Q0997 NOSIG